Time;durP1;ratioP1;P1;durP2;ratioP2;P2;SDS_P1;SDS_P2;PMS_P1;PMS_P2;Temp;Humidity;BMP_temperature;BMP_pressure;BME280_temperature;BME280_humidity;BME280_pressure;Samples;Min_cycle;Max_cycle;Signal;HPM_P1;HPM_P2
2023/11/24 05:27:12;;;;;;;3.20;1.77;;;;;;;;;;4955337;29;20215;-86
2023/11/24 05:31:27;;;;;;;;;;;;;;;;;;;;;
2023/11/24 05:36:09;;;;;;;2.07;1.63;;;;;;;;;;4928011;29;20207;-86
2023/11/24 05:39:37;;;;;;;2.20;1.80;;;;;;;;;;4936181;29;20511;-86
2023/11/24 05:42:44;;;;;;;2.50;1.77;;;;;;;;;;4935687;29;20223;-86
2023/11/24 05:45:55;;;;;;;2.03;1.70;;;;;;;;;;4925185;29;20184;-86
2023/11/24 05:49:05;;;;;;;2.30;1.70;;;;;;;;;;4936446;29;20590;-85
2023/11/24 05:52:45;;;;;;;2.63;1.80;;;;;;;;;;4936644;29;20216;-86
2023/11/24 05:55:49;;;;;;;1.87;1.60;;;;;;;;;;4924577;29;20188;-86
2023/11/24 05:58:53;;;;;;;1.97;1.77;;;;;;;;;;4924935;29;20181;-86
2023/11/24 06:01:57;;;;;;;2.83;1.33;;;;;;;;;;4925206;29;20224;-86
2023/11/24 06:05:03;;;;;;;1.53;1.00;;;;;;;;;;4925192;29;20180;-85
2023/11/24 06:08:07;;;;;;;2.70;1.00;;;;;;;;;;4914281;29;20208;-86
2023/11/24 06:11:11;;;;;;;3.27;1.03;;;;;;;;;;4935884;29;20613;-86
2023/11/24 06:14:15;;;;;;;1.90;0.93;;;;;;;;;;4925025;29;20188;-86
2023/11/24 06:17:19;;;;;;;1.30;0.80;;;;;;;;;;4914184;29;20179;-86
2023/11/24 06:20:23;;;;;;;0.77;0.73;;;;;;;;;;4936130;29;20188;-86
2023/11/24 06:23:28;;;;;;;1.13;0.80;;;;;;;;;;4927300;29;20189;-86
2023/11/24 06:26:34;;;;;;;1.10;0.90;;;;;;;;;;4926904;29;20211;-83
2023/11/24 06:29:38;;;;;;;1.00;0.80;;;;;;;;;;4927284;29;20661;-85
2023/11/24 06:32:42;;;;;;;0.77;0.67;;;;;;;;;;4914509;29;20215;-86
2023/11/24 06:35:46;;;;;;;1.00;0.70;;;;;;;;;;4925070;29;20254;-86
2023/11/24 06:38:50;;;;;;;0.80;0.60;;;;;;;;;;4914154;29;20188;-86
2023/11/24 06:41:54;;;;;;;0.90;0.60;;;;;;;;;;4924869;29;20219;-86
2023/11/24 06:44:59;;;;;;;12.80;7.73;;;;;;;;;;4914985;29;20188;-85
2023/11/24 06:48:03;;;;;;;2.63;1.50;;;;;;;;;;4936766;29;20212;-85
2023/11/24 06:51:07;;;;;;;3.47;2.67;;;;;;;;;;4936415;29;20211;-85
2023/11/24 06:54:11;;;;;;;7.03;4.90;;;;;;;;;;4924794;29;20247;-85
2023/11/24 06:57:16;;;;;;;2.10;1.50;;;;;;;;;;4935732;29;20525;-85
2023/11/24 07:00:20;;;;;;;1.70;1.10;;;;;;;;;;4936477;29;20185;-85
2023/11/24 07:03:25;;;;;;;5.47;3.60;;;;;;;;;;4913461;29;20181;-85
2023/11/24 07:06:29;;;;;;;4.20;2.20;;;;;;;;;;4924394;29;20184;-85
2023/11/24 07:09:33;;;;;;;4.47;3.20;;;;;;;;;;4927584;29;20681;-85
2023/11/24 07:12:38;;;;;;;7.60;4.30;;;;;;;;;;4939977;29;20224;-85
2023/11/24 07:15:42;;;;;;;13.33;7.93;;;;;;;;;;4928154;29;20638;-85
2023/11/24 07:18:46;;;;;;;8.20;4.83;;;;;;;;;;4928188;29;20180;-85
2023/11/24 07:21:50;;;;;;;2.77;1.90;;;;;;;;;;4939820;29;20223;-85
2023/11/24 07:24:55;;;;;;;7.93;4.43;;;;;;;;;;4928635;29;20212;-85
2023/11/24 07:27:59;;;;;;;3.37;1.60;;;;;;;;;;4928820;29;20681;-86
2023/11/24 07:37:16;;;;;;;10.30;6.97;;;;;;;;;;4976413;28;20219;-85
2023/11/24 07:40:20;;;;;;;4.33;3.27;;;;;;;;;;4966313;28;20179;-84
2023/11/24 07:43:23;;;;;;;3.97;2.50;;;;;;;;;;4958935;29;20187;-85
2023/11/24 07:46:28;;;;;;;3.13;1.60;;;;;;;;;;4958303;29;20183;-85
2023/11/24 07:49:33;;;;;;;5.83;4.20;;;;;;;;;;4947589;29;20203;-85
2023/11/24 07:52:38;;;;;;;3.97;2.07;;;;;;;;;;4959315;29;20219;-85
2023/11/24 07:55:42;;;;;;;5.40;4.50;;;;;;;;;;4959748;29;20175;-85
2023/11/24 07:58:46;;;;;;;7.93;2.00;;;;;;;;;;4947366;29;20175;-84
2023/11/24 08:01:50;;;;;;;4.00;1.67;;;;;;;;;;4948217;29;20219;-84
2023/11/24 08:04:55;;;;;;;3.40;1.57;;;;;;;;;;4959645;29;20175;-85
2023/11/24 08:08:00;;;;;;;1.67;1.50;;;;;;;;;;4959720;29;20552;-84
2023/11/24 08:11:05;;;;;;;3.90;2.17;;;;;;;;;;4959924;29;20692;-84
2023/11/24 08:14:09;;;;;;;3.70;2.10;;;;;;;;;;4959309;29;20188;-85
2023/11/24 08:17:13;;;;;;;4.70;1.83;;;;;;;;;;4959432;29;20633;-84
2023/11/24 08:20:19;;;;;;;5.07;2.20;;;;;;;;;;4959477;28;20172;-84
2023/11/24 08:23:22;;;;;;;14.67;7.63;;;;;;;;;;4958381;29;20541;-84
2023/11/24 08:26:27;;;;;;;14.10;7.23;;;;;;;;;;4959480;29;20179;-85
2023/11/24 08:29:31;;;;;;;4.10;1.73;;;;;;;;;;4960241;29;20208;-84
2023/11/24 08:32:35;;;;;;;5.10;1.90;;;;;;;;;;4948541;29;20219;-84
2023/11/24 08:35:40;;;;;;;4.97;2.67;;;;;;;;;;4948667;28;20207;-85
2023/11/24 08:38:44;;;;;;;4.43;3.20;;;;;;;;;;4948699;29;20180;-84
2023/11/24 08:41:49;;;;;;;8.43;4.30;;;;;;;;;;4948202;29;20218;-84
2023/11/24 08:44:53;;;;;;;6.80;3.03;;;;;;;;;;4959231;29;20188;-84
2023/11/24 08:47:57;;;;;;;9.70;3.90;;;;;;;;;;4959204;29;20184;-84
2023/11/24 08:51:03;;;;;;;8.83;3.47;;;;;;;;;;4947397;29;20223;-84
2023/11/24 08:54:09;;;;;;;9.90;3.00;;;;;;;;;;4959534;29;20191;-84
2023/11/24 08:57:13;;;;;;;6.57;2.07;;;;;;;;;;4959453;29;20205;-84
2023/11/24 09:00:17;;;;;;;4.53;2.20;;;;;;;;;;4959408;29;20180;-84
2023/11/24 09:03:24;;;;;;;3.47;1.20;;;;;;;;;;4947341;29;20187;-84
2023/11/24 09:06:31;;;;;;;4.63;1.70;;;;;;;;;;4958679;29;20180;-84
2023/11/24 09:09:36;;;;;;;4.20;1.90;;;;;;;;;;4959229;29;20203;-85
2023/11/24 09:12:41;;;;;;;22.40;12.37;;;;;;;;;;4945335;29;20227;-85
2023/11/24 09:15:45;;;;;;;8.50;4.40;;;;;;;;;;4956037;29;20180;-86
2023/11/24 09:18:49;;;;;;;7.93;3.60;;;;;;;;;;4944971;29;20180;-86
2023/11/24 09:21:54;;;;;;;8.37;3.47;;;;;;;;;;4955769;29;20561;-86
2023/11/24 09:25:01;;;;;;;6.13;2.60;;;;;;;;;;4957499;29;20179;-87
2023/11/24 09:28:08;;;;;;;6.60;2.73;;;;;;;;;;4956755;29;20184;-87
2023/11/24 09:31:13;;;;;;;8.80;3.10;;;;;;;;;;4955426;28;20218;-87
2023/11/24 09:34:17;;;;;;;7.43;2.90;;;;;;;;;;4955414;29;20175;-87
2023/11/24 09:37:21;;;;;;;8.27;2.70;;;;;;;;;;4955098;29;20184;-87
2023/11/24 09:40:26;;;;;;;7.77;2.60;;;;;;;;;;4955531;29;20171;-86
2023/11/24 09:43:29;;;;;;;7.57;3.03;;;;;;;;;;4955036;29;20184;-87
2023/11/24 09:46:34;;;;;;;8.33;2.60;;;;;;;;;;4955012;29;20184;-87
2023/11/24 09:49:40;;;;;;;8.40;2.43;;;;;;;;;;4955217;29;20207;-87
2023/11/24 09:52:46;;;;;;;8.13;1.70;;;;;;;;;;4943770;29;20215;-87
2023/11/24 09:55:50;;;;;;;7.10;2.40;;;;;;;;;;4932870;29;20637;-86
2023/11/24 09:58:54;;;;;;;8.40;2.67;;;;;;;;;;4943724;29;20191;-87
2023/11/24 10:02:00;;;;;;;6.33;2.50;;;;;;;;;;4956677;29;20215;-86
2023/11/24 10:05:07;;;;;;;8.73;3.73;;;;;;;;;;4943779;29;20180;-86
2023/11/24 10:08:10;;;;;;;10.50;4.30;;;;;;;;;;4955862;29;20668;-87
2023/11/24 10:11:27;;;;;;;8.75;2.50;;;;;;;;;;4973323;23;20215;-84
2023/11/24 10:14:31;;;;;;;8.83;3.57;;;;;;;;;;4957821;29;20219;-83
2023/11/24 10:17:36;;;;;;;11.97;3.03;;;;;;;;;;4958731;29;20184;-83
2023/11/24 10:20:41;;;;;;;11.43;4.20;;;;;;;;;;4957933;29;20183;-84
2023/11/24 10:23:46;;;;;;;7.87;3.00;;;;;;;;;;4939249;29;20201;-83
2023/11/24 10:26:50;;;;;;;6.17;2.83;;;;;;;;;;4927357;29;20188;-84
2023/11/24 10:29:55;;;;;;;12.03;3.00;;;;;;;;;;4938784;29;20203;-83
2023/11/24 10:32:59;;;;;;;10.50;3.13;;;;;;;;;;4938719;29;20223;-83
2023/11/24 10:36:05;;;;;;;8.47;3.43;;;;;;;;;;4938456;29;20180;-83
2023/11/24 10:39:12;;;;;;;10.93;2.50;;;;;;;;;;4939217;29;20633;-84
2023/11/24 10:42:20;;;;;;;9.17;3.10;;;;;;;;;;4940311;29;20700;-84
2023/11/24 10:45:26;;;;;;;11.30;2.90;;;;;;;;;;4931584;29;20176;-85
2023/11/24 10:48:40;;;;;;;19.73;3.07;;;;;;;;;;4943109;29;20180;-84
2023/11/24 10:52:03;;;;;;;9.17;2.60;;;;;;;;;;4941189;29;20220;-85
2023/11/24 10:55:14;;;;;;;7.87;2.30;;;;;;;;;;4941743;29;20184;-84
2023/11/24 10:58:20;;;;;;;12.90;3.47;;;;;;;;;;4952807;29;20189;-84
2023/11/24 11:01:27;;;;;;;10.40;2.63;;;;;;;;;;4941506;29;20634;-84
2023/11/24 11:04:32;;;;;;;10.30;2.37;;;;;;;;;;4941982;29;20188;-84
2023/11/24 11:07:52;;;;;;;21.63;9.07;;;;;;;;;;4941573;29;20188;-83
2023/11/24 11:11:15;;;;;;;13.23;5.13;;;;;;;;;;4942337;29;20208;-83
2023/11/24 11:14:19;;;;;;;4.40;2.33;;;;;;;;;;4942146;29;20193;-83
2023/11/24 11:17:25;;;;;;;7.87;3.00;;;;;;;;;;4941032;29;20180;-84
2023/11/24 11:20:30;;;;;;;8.47;3.10;;;;;;;;;;4941760;29;20176;-84
2023/11/24 11:23:36;;;;;;;9.00;2.20;;;;;;;;;;4942451;29;20523;-82
2023/11/24 11:26:45;;;;;;;9.10;2.63;;;;;;;;;;4941554;29;20188;-84
2023/11/24 11:29:49;;;;;;;9.23;3.17;;;;;;;;;;4942004;29;20208;-83
2023/11/24 11:33:14;;;;;;;5.83;1.87;;;;;;;;;;4941624;29;20220;-83
2023/11/24 11:36:23;;;;;;;6.10;1.57;;;;;;;;;;4942591;29;20537;-84
2023/11/24 11:39:36;;;;;;;3.77;1.77;;;;;;;;;;4941865;29;20541;-82
2023/11/24 11:42:58;;;;;;;6.80;2.20;;;;;;;;;;4941574;29;20697;-83
2023/11/24 11:46:03;;;;;;;5.30;2.73;;;;;;;;;;4941979;29;20546;-83
2023/11/24 11:49:09;;;;;;;14.40;6.50;;;;;;;;;;4929608;29;20180;-83
2023/11/24 11:52:13;;;;;;;14.00;4.27;;;;;;;;;;4941391;29;20228;-83
2023/11/24 11:55:21;;;;;;;10.80;4.17;;;;;;;;;;4939407;29;20184;-83
2023/11/24 11:58:27;;;;;;;12.67;5.60;;;;;;;;;;4929675;29;20181;-82
2023/11/24 12:01:33;;;;;;;15.80;7.33;;;;;;;;;;4940024;29;20212;-83
2023/11/24 12:04:38;;;;;;;11.43;4.90;;;;;;;;;;4941816;29;20180;-83
2023/11/24 12:07:48;;;;;;;16.83;8.23;;;;;;;;;;4940418;29;20184;-83
2023/11/24 12:10:52;;;;;;;19.10;8.77;;;;;;;;;;4941135;29;20216;-84
2023/11/24 12:13:56;;;;;;;22.23;9.13;;;;;;;;;;4940223;29;20189;-84
2023/11/24 12:17:00;;;;;;;11.97;5.20;;;;;;;;;;4941298;29;20188;-83
2023/11/24 12:20:10;;;;;;;15.57;4.97;;;;;;;;;;4940166;29;20180;-84
2023/11/24 12:23:15;;;;;;;11.30;4.73;;;;;;;;;;4940814;29;20220;-83
2023/11/24 12:26:20;;;;;;;21.60;7.30;;;;;;;;;;4940582;29;20180;-85
2023/11/24 12:29:25;;;;;;;21.80;9.03;;;;;;;;;;4938824;29;20212;-86
2023/11/24 12:32:32;;;;;;;20.77;9.80;;;;;;;;;;4939383;29;20224;-83
2023/11/24 12:35:36;;;;;;;8.03;2.90;;;;;;;;;;4939742;29;20184;-84
2023/11/24 12:38:40;;;;;;;7.73;2.40;;;;;;;;;;4939731;29;20184;-83
2023/11/24 12:41:46;;;;;;;4.73;1.40;;;;;;;;;;4939324;29;20216;-82
2023/11/24 12:44:51;;;;;;;6.17;1.43;;;;;;;;;;4939585;29;20184;-83
2023/11/24 12:48:05;;;;;;;3.53;1.07;;;;;;;;;;4938724;29;20184;-84
2023/11/24 12:51:09;;;;;;;5.63;1.40;;;;;;;;;;4928119;29;20204;-83
2023/11/24 12:54:13;;;;;;;4.27;1.47;;;;;;;;;;4938994;29;20189;-83
2023/11/24 12:57:17;;;;;;;3.50;1.27;;;;;;;;;;4939450;29;20180;-83
2023/11/24 13:00:26;;;;;;;7.23;3.27;;;;;;;;;;4938814;29;20172;-83
2023/11/24 13:03:31;;;;;;;9.03;3.87;;;;;;;;;;4938585;29;20709;-84
2023/11/24 13:06:34;;;;;;;12.20;5.60;;;;;;;;;;4938982;29;20184;-84
2023/11/24 13:09:39;;;;;;;6.63;3.13;;;;;;;;;;4938745;29;20203;-83
2023/11/24 13:12:44;;;;;;;12.07;6.27;;;;;;;;;;4938213;29;20716;-83
2023/11/24 13:15:48;;;;;;;5.53;2.37;;;;;;;;;;4938619;29;20184;-83
2023/11/24 13:18:57;;;;;;;2.97;2.00;;;;;;;;;;4938917;29;20188;-83
2023/11/24 13:22:01;;;;;;;4.37;2.60;;;;;;;;;;4938662;29;20212;-83
2023/11/24 13:25:08;;;;;;;3.17;1.40;;;;;;;;;;4938652;29;20634;-84
2023/11/24 13:28:11;;;;;;;1.33;1.10;;;;;;;;;;4938620;29;20188;-83
2023/11/24 13:31:16;;;;;;;6.33;4.07;;;;;;;;;;4937806;29;20673;-84
2023/11/24 13:34:20;;;;;;;8.90;6.03;;;;;;;;;;4937928;29;20184;-84
2023/11/24 13:37:24;;;;;;;1.43;0.93;;;;;;;;;;4937940;29;20176;-84
2023/11/24 13:40:30;;;;;;;5.03;2.30;;;;;;;;;;4938225;29;20172;-83
2023/11/24 13:43:36;;;;;;;2.70;2.20;;;;;;;;;;4938876;29;20185;-83
2023/11/24 13:46:42;;;;;;;3.20;1.90;;;;;;;;;;4937611;29;20185;-84
2023/11/24 13:49:46;;;;;;;2.50;2.00;;;;;;;;;;4938293;29;20212;-84
2023/11/24 13:52:56;;;;;;;4.70;1.40;;;;;;;;;;4926958;29;20715;-85
2023/11/24 13:56:01;;;;;;;1.40;1.07;;;;;;;;;;4939017;29;20184;-84
2023/11/24 13:59:09;;;;;;;1.93;1.20;;;;;;;;;;4938734;29;20637;-83
2023/11/24 14:02:15;;;;;;;2.37;1.10;;;;;;;;;;4937791;29;20219;-84
2023/11/24 14:05:19;;;;;;;2.20;0.80;;;;;;;;;;4939015;29;20634;-83
2023/11/24 14:08:23;;;;;;;2.97;1.40;;;;;;;;;;4938818;29;20184;-84
2023/11/24 14:11:30;;;;;;;2.70;1.10;;;;;;;;;;4937809;29;20231;-83
2023/11/24 14:14:34;;;;;;;1.00;0.90;;;;;;;;;;4937967;29;20184;-83
2023/11/24 14:17:40;;;;;;;1.00;0.70;;;;;;;;;;4937124;29;20177;-84
2023/11/24 14:20:46;;;;;;;1.63;1.00;;;;;;;;;;4938546;29;20181;-83
2023/11/24 14:23:52;;;;;;;2.53;0.73;;;;;;;;;;4937800;29;20562;-85
2023/11/24 14:26:56;;;;;;;0.93;0.63;;;;;;;;;;4948720;29;20180;-84
2023/11/24 14:30:02;;;;;;;0.93;0.70;;;;;;;;;;4938692;29;20219;-84
2023/11/24 14:33:12;;;;;;;2.50;1.70;;;;;;;;;;4938564;29;20574;-84
2023/11/24 14:36:17;;;;;;;1.53;0.80;;;;;;;;;;4938629;29;20176;-84
2023/11/24 14:39:25;;;;;;;1.70;1.50;;;;;;;;;;4938619;29;20188;-85
2023/11/24 14:42:29;;;;;;;4.10;3.37;;;;;;;;;;4937382;29;20219;-84
2023/11/24 14:45:33;;;;;;;2.57;2.37;;;;;;;;;;4937871;29;20641;-83
2023/11/24 14:48:37;;;;;;;1.50;1.40;;;;;;;;;;4937906;29;20449;-84
2023/11/24 14:51:42;;;;;;;1.20;0.80;;;;;;;;;;4938537;29;20235;-84
2023/11/24 14:54:46;;;;;;;2.60;1.60;;;;;;;;;;4937300;29;20192;-83
2023/11/24 14:57:55;;;;;;;2.17;1.67;;;;;;;;;;4938167;29;20184;-84
2023/11/24 15:01:06;;;;;;;2.37;1.67;;;;;;;;;;4936957;29;20188;-83
2023/11/24 15:04:13;;;;;;;1.57;1.30;;;;;;;;;;4936935;29;20189;-83
2023/11/24 15:07:19;;;;;;;2.53;1.90;;;;;;;;;;4936980;29;20531;-84
2023/11/24 15:10:23;;;;;;;1.90;1.20;;;;;;;;;;4939119;29;20546;-84
2023/11/24 15:13:27;;;;;;;2.37;1.47;;;;;;;;;;4937715;29;20228;-84
2023/11/24 15:16:40;;;;;;;1.63;1.30;;;;;;;;;;4938223;29;20184;-84
2023/11/24 15:19:50;;;;;;;5.83;4.20;;;;;;;;;;4939189;29;20180;-83
2023/11/24 15:22:58;;;;;;;3.83;2.40;;;;;;;;;;4939012;29;20212;-84
2023/11/24 15:26:03;;;;;;;3.87;2.47;;;;;;;;;;4937785;29;20180;-83
2023/11/24 15:29:10;;;;;;;2.20;1.90;;;;;;;;;;4939961;29;20184;-84
2023/11/24 15:32:19;;;;;;;5.57;3.73;;;;;;;;;;4942194;29;20228;-84
2023/11/24 15:35:24;;;;;;;7.23;4.40;;;;;;;;;;4941858;29;20196;-83
2023/11/24 15:38:28;;;;;;;7.50;4.90;;;;;;;;;;4942244;29;20184;-83
2023/11/24 15:41:38;;;;;;;10.43;5.93;;;;;;;;;;4941168;29;20208;-83
2023/11/24 15:44:44;;;;;;;18.07;9.97;;;;;;;;;;4929950;29;20181;-83
2023/11/24 15:47:51;;;;;;;11.13;7.13;;;;;;;;;;4940516;29;20638;-83
2023/11/24 15:50:57;;;;;;;4.97;3.13;;;;;;;;;;4940742;29;20208;-83
2023/11/24 15:54:04;;;;;;;5.77;3.60;;;;;;;;;;4941291;29;20180;-84
2023/11/24 15:57:09;;;;;;;6.17;4.30;;;;;;;;;;4940587;29;20184;-83
2023/11/24 16:00:20;;;;;;;5.33;3.70;;;;;;;;;;4940922;29;20188;-83
2023/11/24 16:03:24;;;;;;;2.53;1.20;;;;;;;;;;4941001;29;20219;-82
2023/11/24 16:06:28;;;;;;;1.57;1.30;;;;;;;;;;4930068;29;20188;-83
2023/11/24 16:09:34;;;;;;;0.90;0.80;;;;;;;;;;4941305;29;20184;-84
2023/11/24 16:12:40;;;;;;;1.10;0.80;;;;;;;;;;4980910;23;20235;-86
2023/11/24 16:15:45;;;;;;;1.00;0.90;;;;;;;;;;4926825;29;20188;-86
2023/11/24 16:18:49;;;;;;;1.00;0.90;;;;;;;;;;4938566;29;20180;-86
2023/11/24 16:21:53;;;;;;;1.93;1.10;;;;;;;;;;4937415;29;20220;-86
2023/11/24 16:24:57;;;;;;;1.53;1.00;;;;;;;;;;4938631;29;20184;-87
2023/11/24 16:28:02;;;;;;;1.00;0.90;;;;;;;;;;4937406;29;20192;-86
2023/11/24 16:31:07;;;;;;;17.50;10.87;;;;;;;;;;4926143;29;20208;-86
2023/11/24 16:34:20;;;;;;;9.40;5.30;;;;;;;;;;4937246;29;20196;-86
2023/11/24 16:37:24;;;;;;;6.23;3.23;;;;;;;;;;4936980;29;20188;-86
2023/11/24 16:40:28;;;;;;;6.67;4.40;;;;;;;;;;4936675;29;20526;-87
2023/11/24 16:43:33;;;;;;;6.73;5.17;;;;;;;;;;4937755;29;20697;-87
2023/11/24 16:46:36;;;;;;;3.10;1.70;;;;;;;;;;4925970;29;20556;-87
2023/11/24 16:49:42;;;;;;;2.07;1.60;;;;;;;;;;4936956;29;20184;-87
2023/11/24 16:53:15;;;;;;;1.60;1.23;;;;;;;;;;4936901;29;20208;-89
2023/11/24 16:56:21;;;;;;;2.50;2.17;;;;;;;;;;4926621;29;20188;-90
2023/11/24 16:59:25;;;;;;;3.73;1.60;;;;;;;;;;4937398;29;20188;-89
2023/11/24 17:02:50;;;;;;;0.93;0.90;;;;;;;;;;4926155;29;20216;-90
2023/11/24 17:05:55;;;;;;;1.03;1.00;;;;;;;;;;4915045;29;20542;-88
2023/11/24 17:08:59;;;;;;;1.50;1.40;;;;;;;;;;4926408;29;20188;-88
2023/11/24 17:12:05;;;;;;;2.00;1.83;;;;;;;;;;4938453;29;20664;-88
2023/11/24 17:15:10;;;;;;;1.50;1.40;;;;;;;;;;4939517;29;20184;-88
2023/11/24 17:18:15;;;;;;;2.03;1.70;;;;;;;;;;4926436;29;20189;-88
2023/11/24 17:21:19;;;;;;;3.20;2.00;;;;;;;;;;4925568;29;20180;-89
2023/11/24 17:24:23;;;;;;;1.53;1.43;;;;;;;;;;4936648;29;20184;-91
2023/11/24 17:27:29;;;;;;;1.53;1.40;;;;;;;;;;4925617;29;20561;-90
2023/11/24 17:30:33;;;;;;;2.33;1.40;;;;;;;;;;4936468;29;20184;-90
2023/11/24 17:33:39;;;;;;;1.77;1.23;;;;;;;;;;4925405;29;20624;-90
2023/11/24 17:36:44;;;;;;;1.60;1.50;;;;;;;;;;4925528;29;20526;-90
2023/11/24 17:39:48;;;;;;;1.53;1.17;;;;;;;;;;4914288;29;20556;-91
2023/11/24 17:42:52;;;;;;;2.73;1.60;;;;;;;;;;4914247;29;21192;-90
2023/11/24 17:45:56;;;;;;;1.20;1.10;;;;;;;;;;4925501;29;20557;-91
2023/11/24 17:49:03;;;;;;;2.67;1.50;;;;;;;;;;4925747;29;21050;-91
2023/11/24 17:52:07;;;;;;;4.07;2.77;;;;;;;;;;4913785;29;20655;-91
2023/11/24 17:55:11;;;;;;;8.30;5.07;;;;;;;;;;4925164;29;20556;-91
2023/11/24 17:58:15;;;;;;;17.40;9.63;;;;;;;;;;4936211;29;20556;-90
2023/11/24 18:01:19;;;;;;;21.77;12.57;;;;;;;;;;4925219;29;20553;-90
2023/11/24 18:04:23;;;;;;;3.33;2.27;;;;;;;;;;4935924;29;20556;-90
2023/11/24 18:07:27;;;;;;;1.97;1.40;;;;;;;;;;4914053;29;20560;-90
2023/11/24 18:10:31;;;;;;;2.60;1.87;;;;;;;;;;4914481;29;20560;-90
2023/11/24 18:13:36;;;;;;;2.17;1.80;;;;;;;;;;4924740;29;20588;-89
2023/11/24 18:16:40;;;;;;;3.30;1.90;;;;;;;;;;4935746;29;20921;-89
2023/11/24 18:19:44;;;;;;;2.37;2.17;;;;;;;;;;4936598;29;20180;-89
2023/11/24 18:22:48;;;;;;;3.20;2.00;;;;;;;;;;4914012;29;20207;-90
2023/11/24 18:25:52;;;;;;;2.07;1.60;;;;;;;;;;4936344;29;20180;-89
2023/11/24 18:28:56;;;;;;;3.77;2.13;;;;;;;;;;4924644;29;20180;-89
2023/11/24 18:32:04;;;;;;;2.80;2.00;;;;;;;;;;4924557;29;20712;-90
2023/11/24 18:35:08;;;;;;;2.00;1.73;;;;;;;;;;4935613;29;20564;-89
2023/11/24 18:38:12;;;;;;;3.50;2.13;;;;;;;;;;4924362;29;20184;-90
2023/11/24 18:41:16;;;;;;;2.20;1.80;;;;;;;;;;4924732;29;20549;-89
2023/11/24 18:44:20;;;;;;;2.90;1.90;;;;;;;;;;4924854;29;20180;-89
2023/11/24 18:47:25;;;;;;;3.17;1.90;;;;;;;;;;4924542;29;20188;-89
2023/11/24 18:50:29;;;;;;;3.00;1.83;;;;;;;;;;4936570;29;20560;-89
2023/11/24 18:53:33;;;;;;;4.43;2.00;;;;;;;;;;4913648;29;20211;-89
2023/11/24 18:56:38;;;;;;;2.90;2.23;;;;;;;;;;4913382;29;20530;-88
2023/11/24 18:59:41;;;;;;;3.70;1.70;;;;;;;;;;4935242;29;20564;-89
2023/11/24 19:02:49;;;;;;;3.70;2.10;;;;;;;;;;4924873;29;20621;-89
2023/11/24 19:05:54;;;;;;;3.67;2.03;;;;;;;;;;4917003;29;20184;-89
2023/11/24 19:08:58;;;;;;;2.40;2.10;;;;;;;;;;4938646;29;20560;-88
2023/11/24 19:12:03;;;;;;;2.47;1.90;;;;;;;;;;4938344;29;20656;-89
2023/11/24 19:15:10;;;;;;;2.87;2.03;;;;;;;;;;4928000;29;20560;-89
2023/11/24 19:18:14;;;;;;;2.80;1.73;;;;;;;;;;4939342;29;20526;-89
2023/11/24 19:21:20;;;;;;;2.80;1.80;;;;;;;;;;4938590;29;20555;-89
2023/11/24 19:24:24;;;;;;;2.80;2.37;;;;;;;;;;4938436;29;20565;-86
2023/11/24 19:27:28;;;;;;;3.83;2.20;;;;;;;;;;4938150;29;21104;-87
2023/11/24 19:30:33;;;;;;;4.13;2.23;;;;;;;;;;4927581;29;20559;-89
2023/11/24 19:33:37;;;;;;;3.73;2.33;;;;;;;;;;4927531;29;20612;-89
2023/11/24 19:36:41;;;;;;;3.33;2.40;;;;;;;;;;4927716;29;20631;-89
2023/11/24 19:39:52;;;;;;;3.43;2.13;;;;;;;;;;4916839;29;20180;-89
2023/11/24 19:43:00;;;;;;;5.20;2.57;;;;;;;;;;4927055;29;21208;-90
2023/11/24 19:46:08;;;;;;;5.00;3.67;;;;;;;;;;4906282;29;20568;-89
2023/11/24 19:49:13;;;;;;;3.37;2.27;;;;;;;;;;4927530;29;21101;-89
2023/11/24 19:52:16;;;;;;;2.37;1.90;;;;;;;;;;4927131;29;20643;-90
2023/11/24 19:55:24;;;;;;;2.97;2.43;;;;;;;;;;4938362;29;20556;-89
2023/11/24 19:58:34;;;;;;;4.73;2.03;;;;;;;;;;4927726;29;20549;-90
2023/11/24 20:37:06;;;;;;;6.73;2.30;;;;;;;;;;4957183;29;20552;-86
2023/11/24 20:40:29;;;;;;;5.63;1.80;;;;;;;;;;4947279;29;21096;-86
2023/11/24 21:10:59;;;;;;;2.43;1.67;;;;;;;;;;4974806;28;20637;-86
2023/11/24 21:38:33;;;;;;;5.90;2.30;;;;;;;;;;4975640;28;20682;-86
2023/11/24 21:47:40;;;;;;;4.27;1.53;;;;;;;;;;4914435;29;21200;-87
2023/11/24 23:24:10;;;;;;;2.67;0.83;;;;;;;;;;4977897;28;21230;-83
2023/11/24 23:27:14;;;;;;;4.60;1.27;;;;;;;;;;4980015;28;20550;-82
2023/11/24 23:30:18;;;;;;;1.97;1.10;;;;;;;;;;4967538;28;20609;-83
2023/11/24 23:33:23;;;;;;;1.37;1.07;;;;;;;;;;4974331;28;21032;-83
2023/11/24 23:36:28;;;;;;;2.73;1.27;;;;;;;;;;4969140;28;20551;-84
2023/11/24 23:39:34;;;;;;;2.40;1.23;;;;;;;;;;4998283;23;21051;-86
2023/11/24 23:42:42;;;;;;;4.63;1.20;;;;;;;;;;4961108;29;20555;-84
2023/11/24 23:45:46;;;;;;;2.40;1.43;;;;;;;;;;4950150;29;20551;-85
2023/11/24 23:48:50;;;;;;;5.17;1.40;;;;;;;;;;4961901;28;21194;-85
2023/11/24 23:51:54;;;;;;;4.07;1.47;;;;;;;;;;4961062;29;20559;-85
2023/11/24 23:54:58;;;;;;;1.90;1.23;;;;;;;;;;4962327;29;20533;-85
2023/11/24 23:58:03;;;;;;;4.03;1.53;;;;;;;;;;4962226;29;20618;-84
